Time;durP1;ratioP1;P1;durP2;ratioP2;P2;SDS_P1;SDS_P2;PMS_P1;PMS_P2;Temp;Humidity;BMP_temperature;BMP_pressure;BME280_temperature;BME280_humidity;BME280_pressure;Samples;Min_cycle;Max_cycle;Signal;HPM_P1;HPM_P2
2024/04/11 00:01:08;;;;;;;0.10;0.10;;;11.40;1.00;;;;;;5523531;25;20030;-89
2024/04/11 00:03:35;;;;;;;0.10;0.10;;;11.50;1.00;;;;;;5522384;25;20258;-89
2024/04/11 00:06:02;;;;;;;0.10;0.10;;;11.40;1.00;;;;;;5536109;25;20014;-89
2024/04/11 00:08:29;;;;;;;0.10;0.10;;;11.50;1.00;;;;;;5556241;25;20032;-88
2024/04/11 00:10:56;;;;;;;0.10;0.10;;;11.50;1.00;;;;;;5559686;25;20029;-91
2024/04/11 00:13:24;;;;;;;0.10;0.10;;;11.60;1.00;;;;;;5557520;25;20056;-89
2024/04/11 00:15:53;;;;;;;0.10;0.10;;;11.50;1.00;;;;;;5559412;25;20040;-88
2024/04/11 00:18:23;;;;;;;0.10;0.10;;;11.50;1.00;;;;;;5560656;25;20029;-89
2024/04/11 00:20:50;;;;;;;0.10;0.10;;;11.50;1.00;;;;;;5558616;25;20025;-89
2024/04/11 00:23:17;;;;;;;0.10;0.10;;;11.50;1.00;;;;;;5555256;25;20032;-90
2024/04/11 00:25:52;;;;;;;0.10;0.10;;;11.50;1.00;;;;;;5536408;25;20452;-89
2024/04/11 00:28:19;;;;;;;0.15;0.15;;;11.50;1.00;;;;;;5530955;25;20474;-89
2024/04/11 00:30:48;;;;;;;0.10;0.10;;;11.50;1.00;;;;;;5546702;25;20470;-89
2024/04/11 00:33:14;;;;;;;0.10;0.10;;;11.60;1.00;;;;;;5560076;25;20239;-90
2024/04/11 00:35:42;;;;;;;0.10;0.10;;;11.60;1.00;;;;;;5527650;25;19996;-85
2024/04/11 00:38:10;;;;;;;0.10;0.10;;;11.60;1.00;;;;;;5549749;25;20036;-88
2024/04/11 00:40:37;;;;;;;0.10;0.10;;;11.60;1.00;;;;;;5537356;25;20038;-88
2024/04/11 00:43:09;;;;;;;0.10;0.10;;;11.60;1.00;;;;;;5528669;25;20025;-89
2024/04/11 00:45:45;;;;;;;0.10;0.10;;;11.60;1.00;;;;;;5559876;25;20028;-85
2024/04/11 00:48:12;;;;;;;0.10;0.10;;;11.60;1.00;;;;;;5532189;25;20022;-89
2024/04/11 00:50:41;;;;;;;0.10;0.10;;;11.60;1.00;;;;;;5553337;25;20032;-88
2024/04/11 00:53:09;;;;;;;0.10;0.10;;;11.60;1.00;;;;;;5560646;25;20017;-89
2024/04/11 00:55:35;;;;;;;0.20;0.20;;;11.70;1.00;;;;;;5568926;25;20042;-89
2024/04/11 00:58:02;;;;;;;0.20;0.20;;;11.70;1.00;;;;;;5553143;25;20374;-85
2024/04/11 01:00:29;;;;;;;0.10;0.10;;;11.70;1.00;;;;;;5522777;25;20010;-87
2024/04/11 01:02:56;;;;;;;0.10;0.10;;;11.70;1.00;;;;;;5531533;25;20033;-87
2024/04/11 01:05:23;;;;;;;0.10;0.10;;;11.70;1.00;;;;;;5557279;25;20029;-89
2024/04/11 01:07:54;;;;;;;0.20;0.20;;;11.70;1.00;;;;;;5561021;25;20025;-85
2024/04/11 01:10:22;;;;;;;0.10;0.10;;;11.80;1.00;;;;;;5571463;25;20368;-90
2024/04/11 01:12:49;;;;;;;0.17;0.17;;;11.70;1.00;;;;;;5547385;25;20468;-86
2024/04/11 01:15:17;;;;;;;0.10;0.10;;;11.70;1.00;;;;;;5522579;25;20045;-85
2024/04/11 01:17:48;;;;;;;0.10;0.10;;;11.70;1.00;;;;;;5522697;25;20026;-89
2024/04/11 01:20:15;;;;;;;0.20;0.20;;;11.70;1.00;;;;;;5545002;25;20472;-88
2024/04/11 01:22:42;;;;;;;0.10;0.10;;;11.80;1.00;;;;;;5535053;25;20334;-88
2024/04/11 01:25:09;;;;;;;0.20;0.20;;;11.80;1.00;;;;;;5520891;25;20037;-88
2024/04/11 01:27:37;;;;;;;0.10;0.10;;;11.80;1.00;;;;;;5560302;25;20024;-89
2024/04/11 01:30:04;;;;;;;0.10;0.10;;;11.80;1.00;;;;;;5525641;25;20521;-89
2024/04/11 01:32:32;;;;;;;0.10;0.10;;;11.80;1.00;;;;;;5556509;25;20037;-89
2024/04/11 01:34:59;;;;;;;0.10;0.10;;;11.80;1.00;;;;;;5540815;25;20461;-88
2024/04/11 01:37:26;;;;;;;0.10;0.10;;;11.80;1.00;;;;;;5529163;25;20364;-88
2024/04/11 01:39:53;;;;;;;0.10;0.10;;;11.80;1.00;;;;;;5538016;25;20021;-88
2024/04/11 01:42:20;;;;;;;0.10;0.10;;;11.80;1.00;;;;;;5527875;25;20063;-87
2024/04/11 01:44:47;;;;;;;0.10;0.10;;;11.80;1.00;;;;;;5541018;25;20033;-86
2024/04/11 01:47:14;;;;;;;0.10;0.10;;;11.90;1.00;;;;;;5525253;25;20368;-89
2024/04/11 01:49:42;;;;;;;0.20;0.20;;;11.80;1.00;;;;;;5528328;25;20033;-87
2024/04/11 01:52:10;;;;;;;0.10;0.10;;;11.80;1.00;;;;;;5530006;25;20344;-87
2024/04/11 01:54:41;;;;;;;0.10;0.10;;;11.80;1.00;;;;;;5524828;25;20033;-88
2024/04/11 01:57:10;;;;;;;0.10;0.10;;;11.90;1.00;;;;;;5521549;25;20045;-90
2024/04/11 01:59:37;;;;;;;0.20;0.20;;;11.80;1.00;;;;;;5555949;25;20365;-87
2024/04/11 02:02:08;;;;;;;0.10;0.10;;;11.90;1.00;;;;;;5528065;25;20018;-91
2024/04/11 02:04:34;;;;;;;0.17;0.17;;;11.90;1.00;;;;;;5541727;25;20040;-90
2024/04/11 02:07:04;;;;;;;0.20;0.20;;;11.90;1.00;;;;;;5523951;25;20037;-90
2024/04/11 02:09:31;;;;;;;0.10;0.10;;;11.90;1.00;;;;;;5521521;25;20018;-89
2024/04/11 02:11:58;;;;;;;0.15;0.15;;;11.90;1.00;;;;;;5522200;25;20049;-90
2024/04/11 02:14:25;;;;;;;0.10;0.10;;;11.90;1.00;;;;;;5532200;25;20407;-89
2024/04/11 02:16:54;;;;;;;0.10;0.10;;;11.90;1.00;;;;;;5544634;25;20385;-90
2024/04/11 02:19:21;;;;;;;0.15;0.15;;;11.90;1.00;;;;;;5558461;25;20032;-89
2024/04/11 02:21:48;;;;;;;0.10;0.10;;;11.90;1.00;;;;;;5553596;25;20488;-89
2024/04/11 02:24:18;;;;;;;0.10;0.10;;;11.90;1.00;;;;;;5557447;25;20032;-87
2024/04/11 02:26:47;;;;;;;0.20;0.20;;;12.00;1.00;;;;;;5557942;25;20025;-89
2024/04/11 02:29:16;;;;;;;0.10;0.10;;;11.90;1.00;;;;;;5552606;25;20024;-88
2024/04/11 02:31:43;;;;;;;0.10;0.10;;;12.00;1.00;;;;;;5540945;25;20033;-89
2024/04/11 02:34:10;;;;;;;0.20;0.20;;;12.00;1.00;;;;;;5565415;25;20013;-89
2024/04/11 02:36:37;;;;;;;0.20;0.20;;;12.00;1.00;;;;;;5535299;25;20006;-89
2024/04/11 02:39:07;;;;;;;0.10;0.10;;;12.00;1.00;;;;;;5537772;25;20481;-90
2024/04/11 02:41:37;;;;;;;0.15;0.15;;;12.00;1.00;;;;;;5527726;25;20371;-88
2024/04/11 02:44:04;;;;;;;0.10;0.10;;;12.00;1.00;;;;;;5542439;25;20021;-90
2024/04/11 02:46:31;;;;;;;0.10;0.10;;;12.10;1.00;;;;;;5571318;25;20005;-87
2024/04/11 02:48:59;;;;;;;0.20;0.20;;;12.10;1.00;;;;;;5548595;25;20032;-89
2024/04/11 02:51:26;;;;;;;0.10;0.10;;;12.00;1.00;;;;;;5519135;25;20485;-89
2024/04/11 02:53:57;;;;;;;0.10;0.10;;;12.10;1.00;;;;;;5523907;26;20022;-87
2024/04/11 02:56:26;;;;;;;0.10;0.10;;;12.20;1.00;;;;;;5521689;25;20480;-85
2024/04/11 02:58:56;;;;;;;0.10;0.10;;;12.20;1.00;;;;;;5520011;25;20021;-87
2024/04/11 03:01:23;;;;;;;0.10;0.10;;;12.20;1.00;;;;;;5555493;25;20028;-88
2024/04/11 03:03:50;;;;;;;0.10;0.10;;;12.20;1.00;;;;;;5558009;25;20021;-88
2024/04/11 03:06:17;;;;;;;0.10;0.10;;;12.20;1.00;;;;;;5556937;25;20687;-90
2024/04/11 03:08:50;;;;;;;0.10;0.10;;;12.20;1.00;;;;;;5556172;25;20033;-88
2024/04/11 03:11:17;;;;;;;0.15;0.15;;;12.30;1.00;;;;;;5557437;25;20020;-87
2024/04/11 03:13:44;;;;;;;0.10;0.10;;;12.30;1.00;;;;;;5557096;25;20017;-89
2024/04/11 03:16:11;;;;;;;0.10;0.10;;;12.20;1.00;;;;;;5539231;25;20465;-88
2024/04/11 03:18:39;;;;;;;0.10;0.10;;;12.20;1.00;;;;;;5541772;25;20476;-88
2024/04/11 03:21:06;;;;;;;0.10;0.10;;;12.20;1.00;;;;;;5557792;25;20025;-89
2024/04/11 03:23:33;;;;;;;0.10;0.10;;;12.30;1.00;;;;;;5559726;25;20468;-86
2024/04/11 03:26:00;;;;;;;0.10;0.10;;;12.30;1.00;;;;;;5556164;25;20367;-88
2024/04/11 03:28:26;;;;;;;0.10;0.10;;;12.30;1.00;;;;;;5556167;25;20041;-88
2024/04/11 03:31:04;;;;;;;0.10;0.10;;;12.30;1.00;;;;;;5558994;25;20034;-91
2024/04/11 03:33:37;;;;;;;0.10;0.10;;;12.30;1.00;;;;;;5560994;25;20036;-88
2024/04/11 03:36:12;;;;;;;0.13;0.13;;;12.30;1.00;;;;;;5559433;25;20028;-88
2024/04/11 03:38:39;;;;;;;0.10;0.10;;;12.30;1.00;;;;;;5561481;25;20359;-90
2024/04/11 03:41:09;;;;;;;0.10;0.10;;;12.30;1.00;;;;;;5560406;25;20037;-90
2024/04/11 03:43:38;;;;;;;0.10;0.10;;;12.40;1.00;;;;;;5559350;25;20021;-88
2024/04/11 03:46:06;;;;;;;0.17;0.17;;;12.30;1.00;;;;;;5560052;25;20032;-89
2024/04/11 03:48:33;;;;;;;0.10;0.10;;;12.50;1.00;;;;;;5560684;25;20044;-89
2024/04/11 03:51:13;;;;;;;0.10;0.10;;;12.40;1.00;;;;;;5525860;25;20415;-88
2024/04/11 03:53:43;;;;;;;0.13;0.13;;;12.40;1.00;;;;;;5528097;25;20022;-88
2024/04/11 03:56:14;;;;;;;0.15;0.15;;;12.40;1.00;;;;;;5538830;25;19996;-89
2024/04/11 03:58:42;;;;;;;0.17;0.17;;;12.40;1.00;;;;;;5528086;25;20033;-89
2024/04/11 04:01:13;;;;;;;0.10;0.10;;;12.50;1.00;;;;;;5550045;25;20044;-89
2024/04/11 04:03:40;;;;;;;0.15;0.15;;;12.40;1.00;;;;;;5561146;25;20025;-90
2024/04/11 04:06:08;;;;;;;0.20;0.20;;;12.40;1.00;;;;;;5559768;25;20028;-89
2024/04/11 04:08:36;;;;;;;0.10;0.10;;;12.40;1.00;;;;;;5523812;25;20033;-90
2024/04/11 04:11:03;;;;;;;0.10;0.10;;;12.40;1.00;;;;;;5523888;25;20029;-89
2024/04/11 04:13:30;;;;;;;0.20;0.20;;;12.40;1.00;;;;;;5555834;25;20025;-89
2024/04/11 04:15:58;;;;;;;0.20;0.20;;;12.50;1.00;;;;;;5572205;25;20421;-90
2024/04/11 04:18:27;;;;;;;0.10;0.10;;;12.50;1.00;;;;;;5564379;25;20024;-90
2024/04/11 04:20:58;;;;;;;0.10;0.10;;;12.50;1.00;;;;;;5559750;25;20451;-90
2024/04/11 04:23:25;;;;;;;0.20;0.20;;;12.50;1.00;;;;;;5560933;25;20045;-90
2024/04/11 04:26:05;;;;;;;0.10;0.10;;;12.50;1.00;;;;;;5561736;25;20048;-91
2024/04/11 04:28:38;;;;;;;0.10;0.10;;;12.40;1.00;;;;;;5574743;25;20095;-89
2024/04/11 04:31:34;;;;;;;0.10;0.10;;;12.40;1.00;;;;;;5567328;25;20028;-90
2024/04/11 04:34:04;;;;;;;0.10;0.10;;;12.40;1.00;;;;;;5560824;25;20029;-90
2024/04/11 04:36:34;;;;;;;0.10;0.10;;;12.30;1.00;;;;;;5557105;25;20004;-90
2024/04/11 04:39:04;;;;;;;0.10;0.10;;;12.40;1.00;;;;;;5566208;25;20055;-89
2024/04/11 04:41:31;;;;;;;0.10;0.10;;;12.40;1.00;;;;;;5557404;25;20032;-89
2024/04/11 04:44:00;;;;;;;0.10;0.10;;;12.30;1.00;;;;;;5559254;25;20021;-85
2024/04/11 04:46:34;;;;;;;0.10;0.10;;;12.30;1.00;;;;;;5559983;25;20048;-86
2024/04/11 04:49:04;;;;;;;0.20;0.20;;;12.20;1.00;;;;;;5558938;25;20021;-85
2024/04/11 04:51:36;;;;;;;0.10;0.10;;;12.10;1.00;;;;;;5530140;25;20388;-87
2024/04/11 04:54:03;;;;;;;0.10;0.10;;;12.10;1.00;;;;;;5519444;25;20025;-87
2024/04/11 04:56:32;;;;;;;0.10;0.10;;;12.00;1.00;;;;;;5554714;25;20004;-87
2024/04/11 04:58:59;;;;;;;0.10;0.10;;;11.90;1.00;;;;;;5555604;25;20007;-87
2024/04/11 05:01:26;;;;;;;0.10;0.10;;;11.90;1.00;;;;;;5542098;25;20037;-87
2024/04/11 05:03:55;;;;;;;0.10;0.10;;;11.80;1.00;;;;;;5550079;25;20028;-86
2024/04/11 05:06:22;;;;;;;0.10;0.10;;;11.80;1.00;;;;;;5552753;25;20021;-86
2024/04/11 05:08:53;;;;;;;0.10;0.10;;;11.70;1.00;;;;;;5522438;25;20017;-84
2024/04/11 05:11:21;;;;;;;0.22;0.22;;;11.70;1.00;;;;;;5529279;25;20362;-86
2024/04/11 05:13:50;;;;;;;0.10;0.10;;;11.70;1.00;;;;;;5556136;25;20045;-88
2024/04/11 05:16:21;;;;;;;0.20;0.20;;;11.60;1.00;;;;;;5557434;25;20037;-85
2024/04/11 05:18:51;;;;;;;0.10;0.10;;;11.60;1.00;;;;;;5557765;25;20021;-87
2024/04/11 05:21:23;;;;;;;0.10;0.10;;;11.60;1.00;;;;;;5532436;25;20012;-87
2024/04/11 05:23:51;;;;;;;0.10;0.10;;;11.60;1.00;;;;;;5543816;25;20024;-82
2024/04/11 05:26:24;;;;;;;0.10;0.10;;;11.60;1.00;;;;;;5533001;25;20021;-84
2024/04/11 05:28:52;;;;;;;0.10;0.10;;;11.50;1.00;;;;;;5539824;25;20029;-86
2024/04/11 05:31:25;;;;;;;0.20;0.20;;;11.50;1.00;;;;;;5520959;25;20033;-86
2024/04/11 05:33:54;;;;;;;0.10;0.10;;;11.50;1.00;;;;;;5521113;25;20031;-88
2024/04/11 05:36:28;;;;;;;0.10;0.10;;;11.60;1.00;;;;;;5519967;25;20101;-84
2024/04/11 05:38:56;;;;;;;0.10;0.10;;;11.50;1.00;;;;;;5550182;25;20361;-87
2024/04/11 05:41:24;;;;;;;0.10;0.10;;;11.50;1.00;;;;;;5558412;25;20021;-85
2024/04/11 05:43:51;;;;;;;0.10;0.10;;;11.50;1.00;;;;;;5558138;25;20032;-86
2024/04/11 05:46:19;;;;;;;0.20;0.20;;;11.50;1.00;;;;;;5558563;25;20036;-87
2024/04/11 05:48:49;;;;;;;0.10;0.10;;;11.50;1.00;;;;;;5558258;25;20037;-86
2024/04/11 05:51:18;;;;;;;0.10;0.10;;;11.50;1.00;;;;;;5548763;25;20396;-86
2024/04/11 05:53:46;;;;;;;0.10;0.10;;;11.50;1.00;;;;;;5519969;25;20026;-88
2024/04/11 05:56:14;;;;;;;0.10;0.10;;;11.50;1.00;;;;;;5532071;25;20022;-88
2024/04/11 05:58:42;;;;;;;0.10;0.10;;;11.50;1.00;;;;;;5539881;25;20033;-85
2024/04/11 06:01:13;;;;;;;0.20;0.20;;;11.50;1.00;;;;;;5558047;25;20020;-88
2024/04/11 06:03:46;;;;;;;0.20;0.20;;;11.60;1.00;;;;;;5558571;25;20357;-88
2024/04/11 06:06:14;;;;;;;0.20;0.20;;;11.60;1.00;;;;;;5556674;25;20036;-85
2024/04/11 06:08:42;;;;;;;0.10;0.10;;;11.60;1.00;;;;;;5557309;25;20103;-88
2024/04/11 06:11:12;;;;;;;0.10;0.10;;;11.60;1.00;;;;;;5558249;25;20024;-87
2024/04/11 06:13:39;;;;;;;0.17;0.17;;;11.60;1.00;;;;;;5558818;25;20033;-87
2024/04/11 06:16:06;;;;;;;0.10;0.10;;;11.60;1.00;;;;;;5557021;25;20024;-88
2024/04/11 06:18:34;;;;;;;0.10;0.10;;;11.60;1.00;;;;;;5521983;25;20026;-87
2024/04/11 06:21:04;;;;;;;0.10;0.10;;;11.60;1.00;;;;;;5519324;25;20026;-89
2024/04/11 06:23:35;;;;;;;0.10;0.10;;;11.60;1.00;;;;;;5529184;25;20004;-87
2024/04/11 06:26:02;;;;;;;0.10;0.10;;;11.60;1.00;;;;;;5553270;25;20593;-88
2024/04/11 06:28:29;;;;;;;0.20;0.20;;;11.70;1.00;;;;;;5545387;25;20029;-86
2024/04/11 06:30:56;;;;;;;0.10;0.10;;;11.70;1.00;;;;;;5538429;25;20038;-88
2024/04/11 06:33:23;;;;;;;0.10;0.10;;;11.70;1.00;;;;;;5538961;25;20048;-87
2024/04/11 06:35:53;;;;;;;0.10;0.10;;;11.70;1.00;;;;;;5545869;25;20021;-87
2024/04/11 06:38:23;;;;;;;0.10;0.10;;;11.80;1.00;;;;;;5550038;25;20001;-88
2024/04/11 06:40:54;;;;;;;0.10;0.10;;;11.80;1.00;;;;;;5558019;25;20044;-87
2024/04/11 06:43:21;;;;;;;0.10;0.10;;;11.80;1.00;;;;;;5558400;25;20471;-88
2024/04/11 06:45:51;;;;;;;0.10;0.10;;;11.80;1.00;;;;;;5556908;25;20025;-85
2024/04/11 06:48:21;;;;;;;0.10;0.10;;;11.90;1.00;;;;;;5548089;25;20029;-85
2024/04/11 06:50:49;;;;;;;0.20;0.20;;;11.90;1.00;;;;;;5556068;25;20025;-88
2024/04/11 06:53:17;;;;;;;0.10;0.10;;;11.90;1.00;;;;;;5542432;25;20512;-88
2024/04/11 06:55:46;;;;;;;0.10;0.10;;;12.00;1.00;;;;;;5522454;25;20037;-87
2024/04/11 06:58:22;;;;;;;0.10;0.10;;;12.10;1.00;;;;;;5544133;25;20008;-83
2024/04/11 07:00:59;;;;;;;0.10;0.10;;;12.00;1.00;;;;;;5544129;25;20024;-86
2024/04/11 07:03:27;;;;;;;0.10;0.10;;;12.00;1.00;;;;;;5522054;25;20033;-86
2024/04/11 07:06:00;;;;;;;0.10;0.10;;;12.00;1.00;;;;;;5530858;25;20468;-86
2024/04/11 07:08:31;;;;;;;0.10;0.10;;;12.00;1.00;;;;;;5524798;25;20025;-88
2024/04/11 07:11:12;;;;;;;0.13;0.13;;;12.00;1.00;;;;;;5524581;25;20037;-86
2024/04/11 07:13:39;;;;;;;0.20;0.20;;;12.00;1.00;;;;;;5550640;25;20049;-86
2024/04/11 07:16:07;;;;;;;0.20;0.20;;;12.00;1.00;;;;;;5554885;25;20119;-88
2024/04/11 07:18:44;;;;;;;0.10;0.10;;;12.00;1.00;;;;;;5534499;25;20463;-87
2024/04/11 07:21:17;;;;;;;0.15;0.15;;;12.10;1.00;;;;;;5568177;25;20639;-82
2024/04/11 07:23:53;;;;;;;0.10;0.10;;;12.00;1.00;;;;;;5546266;25;20024;-87
2024/04/11 07:26:22;;;;;;;0.17;0.17;;;12.10;1.00;;;;;;5529012;25;20037;-87
2024/04/11 07:28:50;;;;;;;0.10;0.10;;;12.10;1.00;;;;;;5529607;25;20033;-85
2024/04/11 07:31:17;;;;;;;0.20;0.20;;;12.10;1.00;;;;;;5560565;25;20052;-86
2024/04/11 07:33:48;;;;;;;0.10;0.10;;;12.10;1.00;;;;;;5560025;25;20033;-84
2024/04/11 07:36:16;;;;;;;0.10;0.10;;;12.10;1.00;;;;;;5538726;25;20045;-88
2024/04/11 07:38:43;;;;;;;0.10;0.10;;;12.10;1.00;;;;;;5524181;25;20032;-88
2024/04/11 07:41:16;;;;;;;0.10;0.10;;;12.10;1.00;;;;;;5532437;25;20029;-89
2024/04/11 07:43:57;;;;;;;0.10;0.10;;;12.10;1.00;;;;;;5534677;25;20072;-88
2024/04/11 07:46:28;;;;;;;0.10;0.10;;;12.10;1.00;;;;;;5522478;25;20465;-90
2024/04/11 07:48:56;;;;;;;0.10;0.10;;;12.20;1.00;;;;;;5542839;25;20025;-87
2024/04/11 07:51:24;;;;;;;0.10;0.10;;;12.20;1.00;;;;;;5532695;25;20025;-89
2024/04/11 07:53:50;;;;;;;0.10;0.10;;;12.10;1.00;;;;;;5527328;25;20052;-90
2024/04/11 07:56:25;;;;;;;0.10;0.10;;;12.20;1.00;;;;;;5556133;25;20367;-88
2024/04/11 07:58:56;;;;;;;0.10;0.10;;;12.20;1.00;;;;;;5561192;25;20024;-90
2024/04/11 08:01:36;;;;;;;0.20;0.20;;;12.20;1.00;;;;;;5560547;25;20466;-90
2024/04/11 08:04:07;;;;;;;0.10;0.10;;;12.20;1.00;;;;;;5558691;25;20007;-88
2024/04/11 08:06:34;;;;;;;0.10;0.10;;;12.20;1.00;;;;;;5568270;25;20021;-87
2024/04/11 08:09:08;;;;;;;0.13;0.13;;;12.30;1.00;;;;;;5562295;25;20032;-89
2024/04/11 08:11:35;;;;;;;0.10;0.10;;;12.30;1.00;;;;;;5562872;25;20032;-92
2024/04/11 08:14:06;;;;;;;0.10;0.10;;;12.30;1.00;;;;;;5559779;25;20025;-89
2024/04/11 08:16:36;;;;;;;0.10;0.10;;;12.40;1.00;;;;;;5559967;25;20029;-88
2024/04/11 08:19:04;;;;;;;0.20;0.20;;;12.40;1.00;;;;;;5561833;25;20381;-87
2024/04/11 08:21:32;;;;;;;0.10;0.10;;;12.40;1.00;;;;;;5558957;25;20033;-90
2024/04/11 08:24:00;;;;;;;0.10;0.10;;;12.50;1.00;;;;;;5561120;25;20032;-91
2024/04/11 08:26:29;;;;;;;0.10;0.10;;;12.60;1.00;;;;;;5569581;25;20024;-90
2024/04/11 08:28:56;;;;;;;0.10;0.10;;;12.60;1.00;;;;;;5566813;25;20037;-90
2024/04/11 08:31:30;;;;;;;0.10;0.10;;;12.70;1.00;;;;;;5560412;25;20025;-88
2024/04/11 08:33:58;;;;;;;0.10;0.10;;;12.70;1.00;;;;;;5559902;25;20028;-92
2024/04/11 08:36:26;;;;;;;0.10;0.10;;;12.80;1.00;;;;;;5557719;25;20029;-86
2024/04/11 08:38:55;;;;;;;0.10;0.10;;;12.80;1.00;;;;;;5559051;25;20339;-84
2024/04/11 08:41:22;;;;;;;0.10;0.10;;;12.80;1.00;;;;;;5559853;25;20033;-90
2024/04/11 08:43:50;;;;;;;0.10;0.10;;;12.80;1.00;;;;;;5558556;25;20029;-90
2024/04/11 08:46:17;;;;;;;0.20;0.20;;;12.90;1.00;;;;;;5561552;25;20020;-87
2024/04/11 08:48:44;;;;;;;0.10;0.10;;;12.90;1.00;;;;;;5564715;25;20484;-90
2024/04/11 08:51:21;;;;;;;0.10;0.10;;;13.00;1.00;;;;;;5538581;25;20357;-91
2024/04/11 08:53:52;;;;;;;0.10;0.10;;;13.00;1.00;;;;;;5545332;25;20021;-89
2024/04/11 08:56:19;;;;;;;0.10;0.10;;;13.00;1.00;;;;;;5549685;25;20381;-90
2024/04/11 08:58:48;;;;;;;0.10;0.10;;;13.10;1.00;;;;;;5551103;25;19996;-88
2024/04/11 09:01:21;;;;;;;0.10;0.10;;;13.20;1.00;;;;;;5546046;25;20026;-90
2024/04/11 09:03:52;;;;;;;0.10;0.10;;;13.20;1.00;;;;;;5555135;25;20372;-88
2024/04/11 09:06:26;;;;;;;;;;;13.20;1.00;;;;;;5555119;25;20027;-90
2024/04/11 09:08:54;;;;;;;0.20;0.20;;;13.30;1.00;;;;;;5546683;25;19951;-89
2024/04/11 09:11:23;;;;;;;0.10;0.10;;;13.30;1.00;;;;;;5547121;25;20368;-89
2024/04/11 09:13:50;;;;;;;0.10;0.10;;;13.40;1.00;;;;;;5555292;25;20017;-89
2024/04/11 09:16:26;;;;;;;0.10;0.10;;;13.30;1.00;;;;;;5537656;25;20045;-86
2024/04/11 09:19:00;;;;;;;0.10;0.10;;;13.30;1.00;;;;;;5530447;25;20044;-89
2024/04/11 09:21:28;;;;;;;0.10;0.10;;;13.40;1.00;;;;;;5555006;25;20025;-89
2024/04/11 09:23:54;;;;;;;0.10;0.10;;;13.40;1.00;;;;;;5554083;25;20251;-88
2024/04/11 09:26:22;;;;;;;0.10;0.10;;;13.40;1.00;;;;;;5551544;25;20028;-91
2024/04/11 09:28:50;;;;;;;0.10;0.10;;;13.40;1.00;;;;;;5537520;25;20033;-91
2024/04/11 09:31:20;;;;;;;0.10;0.10;;;13.50;1.00;;;;;;5561157;25;20485;-88
2024/04/11 09:33:55;;;;;;;0.10;0.10;;;13.40;1.00;;;;;;5554084;25;20099;-89
2024/04/11 09:36:27;;;;;;;0.03;0.03;;;13.50;1.00;;;;;;5555003;25;20033;-87
2024/04/11 09:39:12;;;;;;;0.10;0.10;;;13.50;1.00;;;;;;5531424;25;20057;-88
2024/04/11 09:41:40;;;;;;;0.10;0.10;;;13.60;1.00;;;;;;5534846;25;20029;-89
2024/04/11 09:44:07;;;;;;;0.10;0.10;;;13.60;1.00;;;;;;5526060;25;20042;-87
2024/04/11 09:46:41;;;;;;;0.20;0.20;;;13.70;1.00;;;;;;5555434;25;20487;-88
2024/04/11 09:49:10;;;;;;;0.10;0.10;;;13.80;1.00;;;;;;5557471;25;20025;-89
2024/04/11 09:51:41;;;;;;;0.10;0.10;;;13.80;1.00;;;;;;5533923;25;20045;-90
2024/04/11 09:54:13;;;;;;;0.10;0.10;;;13.90;1.00;;;;;;5556065;25;20018;-89
2024/04/11 09:56:44;;;;;;;0.20;0.20;;;13.90;1.00;;;;;;5574507;25;19997;-90
2024/04/11 09:59:12;;;;;;;0.10;0.10;;;14.00;1.00;;;;;;5559831;25;20021;-90
2024/04/11 10:01:40;;;;;;;0.10;0.10;;;14.00;1.00;;;;;;5533549;25;20032;-87
2024/04/11 10:04:35;;;;;;;0.10;0.10;;;14.10;1.00;;;;;;5560505;25;20020;-90
2024/04/11 10:07:09;;;;;;;0.10;0.10;;;14.10;1.00;;;;;;5543569;25;20001;-90
2024/04/11 10:09:47;;;;;;;0.20;0.20;;;14.10;1.00;;;;;;5548268;25;20017;-88
2024/04/11 10:12:19;;;;;;;0.10;0.10;;;14.20;1.00;;;;;;5545121;25;20043;-88
2024/04/11 10:14:51;;;;;;;0.10;0.10;;;14.20;1.00;;;;;;5554645;25;20013;-87
2024/04/11 10:17:18;;;;;;;0.10;0.10;;;14.20;1.00;;;;;;5552848;25;20029;-86
2024/04/11 10:19:47;;;;;;;0.10;0.10;;;14.30;1.00;;;;;;5558462;25;20476;-89
2024/04/11 10:22:24;;;;;;;0.10;0.10;;;14.30;1.00;;;;;;5535350;25;20035;-92
2024/04/11 10:25:06;;;;;;;0.10;0.10;;;14.20;1.00;;;;;;5551961;25;20033;-87
2024/04/11 10:27:37;;;;;;;0.10;0.10;;;14.40;1.00;;;;;;5522008;25;20026;-90
2024/04/11 10:30:07;;;;;;;0.20;0.20;;;14.40;1.00;;;;;;5522146;25;20049;-90
2024/04/11 10:32:39;;;;;;;0.10;0.10;;;14.40;1.00;;;;;;5521801;25;20029;-87
2024/04/11 10:35:07;;;;;;;0.10;0.10;;;14.50;1.00;;;;;;5533345;25;20456;-89
2024/04/11 10:37:39;;;;;;;0.20;0.20;;;14.50;1.00;;;;;;5555067;25;20465;-89
2024/04/11 10:40:10;;;;;;;0.10;0.10;;;14.50;1.00;;;;;;5557346;25;20032;-90
2024/04/11 10:42:39;;;;;;;0.10;0.10;;;14.50;1.00;;;;;;5530919;25;20013;-89
2024/04/11 10:45:19;;;;;;;0.10;0.10;;;14.50;1.00;;;;;;5524259;25;20388;-90
2024/04/11 10:47:47;;;;;;;0.10;0.10;;;14.50;1.00;;;;;;5520680;25;20038;-90
2024/04/11 10:50:15;;;;;;;0.20;0.20;;;14.50;1.00;;;;;;5521861;25;20391;-88
2024/04/11 10:52:45;;;;;;;0.20;0.20;;;14.50;1.00;;;;;;5525841;25;20535;-88
2024/04/11 10:55:28;;;;;;;0.17;0.17;;;14.50;1.00;;;;;;5564453;25;20005;-90
2024/04/11 10:58:21;;;;;;;0.13;0.13;;;14.60;1.00;;;;;;5558587;25;20024;-90
2024/04/11 11:06:15;;;;;;;0.10;0.10;;;14.60;1.00;;;;;;5520999;25;20029;-89
2024/04/11 11:08:43;;;;;;;0.20;0.20;;;14.60;1.00;;;;;;5542670;25;20020;-89
2024/04/11 11:11:14;;;;;;;0.10;0.10;;;14.70;1.00;;;;;;5557087;25;20020;-89
2024/04/11 11:13:42;;;;;;;0.10;0.10;;;14.70;1.00;;;;;;5557269;25;20013;-89
2024/04/11 11:16:12;;;;;;;0.20;0.20;;;14.80;1.00;;;;;;5558291;25;20021;-89
2024/04/11 11:18:43;;;;;;;0.10;0.10;;;14.80;1.00;;;;;;5554566;25;20029;-87
2024/04/11 11:21:17;;;;;;;0.10;0.10;;;15.00;1.00;;;;;;5542055;25;20021;-88
2024/04/11 11:23:47;;;;;;;0.10;0.10;;;15.10;1.00;;;;;;5534418;25;20033;-90
2024/04/11 11:26:22;;;;;;;0.20;0.20;;;15.10;1.00;;;;;;5548347;25;20025;-90
2024/04/11 11:28:51;;;;;;;0.10;0.10;;;15.20;1.00;;;;;;5539991;25;20497;-90
2024/04/11 11:31:22;;;;;;;0.10;0.10;;;15.30;1.00;;;;;;5521678;25;20045;-89
2024/04/11 11:33:49;;;;;;;0.13;0.13;;;15.30;1.00;;;;;;5521156;25;20461;-91
2024/04/11 11:36:19;;;;;;;0.20;0.20;;;15.30;1.00;;;;;;5550009;25;20044;-91
2024/04/11 11:38:48;;;;;;;0.20;0.20;;;15.30;1.00;;;;;;5558519;25;20029;-90
2024/04/11 11:41:16;;;;;;;0.10;0.10;;;15.30;1.00;;;;;;5560374;25;20125;-90
2024/04/11 11:43:44;;;;;;;0.20;0.20;;;15.20;1.00;;;;;;5557799;25;20021;-91
2024/04/11 11:46:26;;;;;;;0.10;0.10;;;15.20;1.00;;;;;;5521084;25;20037;-90
2024/04/11 11:48:57;;;;;;;0.20;0.20;;;15.20;1.00;;;;;;5520390;25;20744;-90
2024/04/11 11:51:30;;;;;;;0.10;0.10;;;15.20;1.00;;;;;;5519726;26;20362;-90
2024/04/11 11:54:00;;;;;;;0.10;0.10;;;15.30;1.00;;;;;;5523528;26;20030;-90
2024/04/11 11:56:32;;;;;;;0.20;0.20;;;15.30;1.00;;;;;;5523495;25;20025;-90
2024/04/11 11:59:02;;;;;;;0.10;0.10;;;15.30;1.00;;;;;;5523819;25;20037;-89
2024/04/11 12:01:41;;;;;;;0.20;0.20;;;15.30;1.00;;;;;;5522760;25;20007;-89
2024/04/11 12:04:10;;;;;;;0.10;0.10;;;15.30;1.00;;;;;;5524098;25;20033;-88
2024/04/11 12:06:37;;;;;;;0.10;0.10;;;15.40;1.00;;;;;;5521656;25;20022;-89
2024/04/11 12:09:10;;;;;;;0.17;0.17;;;15.30;1.00;;;;;;5523743;26;20034;-89
2024/04/11 12:11:54;;;;;;;0.10;0.10;;;15.30;1.00;;;;;;5523973;26;20021;-90
2024/04/11 12:14:34;;;;;;;0.10;0.10;;;15.30;1.00;;;;;;5523771;25;20025;-90
2024/04/11 12:17:04;;;;;;;0.15;0.15;;;15.40;1.00;;;;;;5542511;25;20025;-89
2024/04/11 12:19:31;;;;;;;0.10;0.10;;;15.50;1.00;;;;;;5565313;25;20032;-89
2024/04/11 12:22:11;;;;;;;0.10;0.10;;;15.50;1.00;;;;;;5558570;25;20036;-90
2024/04/11 12:24:39;;;;;;;0.10;0.10;;;15.60;1.00;;;;;;5561951;25;20048;-91
2024/04/11 12:27:06;;;;;;;0.20;0.20;;;15.70;1.00;;;;;;5562007;25;20025;-89
2024/04/11 12:29:34;;;;;;;0.10;0.10;;;15.80;1.00;;;;;;5560980;25;20457;-89
2024/04/11 12:32:07;;;;;;;0.10;0.10;;;15.90;1.00;;;;;;5560401;25;20365;-91
2024/04/11 12:34:37;;;;;;;0.10;0.10;;;16.10;1.00;;;;;;5564406;25;20477;-90
2024/04/11 12:37:16;;;;;;;0.20;0.20;;;16.40;1.00;;;;;;5562498;25;20024;-90
2024/04/11 12:39:53;;;;;;;0.10;0.10;;;16.50;1.00;;;;;;5561291;25;20021;-91
2024/04/11 12:42:24;;;;;;;0.20;0.20;;;16.60;1.00;;;;;;5559599;25;20028;-89
2024/04/11 12:44:55;;;;;;;0.10;0.10;;;16.70;1.00;;;;;;5559533;25;20021;-90
2024/04/11 12:47:48;;;;;;;0.20;0.20;;;16.70;1.00;;;;;;5532274;25;20030;-92
2024/04/11 12:50:16;;;;;;;0.25;0.25;;;16.60;1.00;;;;;;5523960;25;20054;-92
2024/04/11 12:52:49;;;;;;;0.17;0.17;;;16.60;1.00;;;;;;5522112;26;20021;-91
2024/04/11 12:55:24;;;;;;;0.13;0.13;;;16.60;1.00;;;;;;5526028;25;20452;-89
2024/04/11 12:58:01;;;;;;;0.20;0.20;;;16.50;1.00;;;;;;5526636;25;20014;-90
2024/04/11 13:00:43;;;;;;;0.10;0.10;;;16.40;1.00;;;;;;5528913;26;20030;-93
2024/04/11 13:03:16;;;;;;;0.20;0.20;;;16.40;1.00;;;;;;5522939;26;20021;-92
2024/04/11 13:06:07;;;;;;;0.20;0.20;;;16.30;1.00;;;;;;5540609;25;20008;-90
2024/04/11 13:08:34;;;;;;;0.10;0.10;;;16.30;1.00;;;;;;5525098;26;20021;-88
2024/04/11 13:11:07;;;;;;;0.10;0.10;;;16.20;1.00;;;;;;5521768;26;20035;-90
2024/04/11 13:13:33;;;;;;;0.20;0.20;;;16.20;1.00;;;;;;5524394;25;20026;-92
2024/04/11 13:16:09;;;;;;;0.13;0.13;;;16.20;1.00;;;;;;5522475;25;20756;-90
2024/04/11 13:18:38;;;;;;;0.10;0.10;;;16.10;1.00;;;;;;5522414;25;20033;-91